Time;durP1;ratioP1;P1;durP2;ratioP2;P2;SDS_P1;SDS_P2;PMS_P1;PMS_P2;Temp;Humidity;BMP_temperature;BMP_pressure;BME280_temperature;BME280_humidity;BME280_pressure;Samples;Min_cycle;Max_cycle;Signal;HPM_P1;HPM_P2
2022/09/13 00:01:45;;;;;;;103.38;40.22;;;7.00;99.90;;;;;;5028881;28;20025;-77
2022/09/13 00:04:10;;;;;;;97.90;43.00;;;6.90;99.90;;;;;;5028065;28;20383;-77
2022/09/13 00:06:36;;;;;;;99.47;40.25;;;7.00;99.90;;;;;;5029138;28;20018;-77
2022/09/13 00:09:02;;;;;;;97.60;38.28;;;7.00;99.90;;;;;;5030309;28;20117;-77
2022/09/13 00:11:30;;;;;;;106.47;38.55;;;7.00;99.90;;;;;;5047565;28;20023;-78
2022/09/13 00:13:57;;;;;;;113.35;42.00;;;6.90;99.90;;;;;;5050065;28;20124;-76
2022/09/13 00:16:26;;;;;;;80.85;34.63;;;6.90;99.90;;;;;;5051013;28;20054;-76
2022/09/13 00:18:53;;;;;;;92.95;38.83;;;7.00;99.90;;;;;;5052444;28;20017;-77
2022/09/13 00:21:20;;;;;;;202.90;77.25;;;6.90;99.90;;;;;;5051091;28;20107;-77
2022/09/13 00:23:51;;;;;;;168.60;63.55;;;6.90;99.90;;;;;;5050970;28;20112;-77
2022/09/13 00:26:21;;;;;;;111.75;47.63;;;6.90;99.90;;;;;;5051046;28;20029;-76
2022/09/13 00:28:55;;;;;;;78.15;37.80;;;6.80;99.90;;;;;;5052812;28;20017;-76
2022/09/13 00:31:22;;;;;;;114.07;50.15;;;6.80;99.90;;;;;;5052260;28;20104;-78
2022/09/13 00:33:49;;;;;;;171.55;64.35;;;6.70;99.90;;;;;;5052062;28;20021;-76
2022/09/13 00:36:14;;;;;;;99.70;43.25;;;6.60;99.90;;;;;;5052191;28;20398;-76
2022/09/13 00:38:40;;;;;;;84.80;40.90;;;6.60;99.90;;;;;;5050749;28;20025;-77
2022/09/13 00:41:10;;;;;;;98.22;39.72;;;6.60;99.90;;;;;;5052116;28;20116;-76
2022/09/13 00:43:58;;;;;;;101.03;37.97;;;6.60;99.90;;;;;;5051893;28;20021;-76
2022/09/13 00:46:36;;;;;;;66.47;31.52;;;6.60;99.90;;;;;;5050758;28;20385;-76
2022/09/13 00:49:22;;;;;;;80.25;34.40;;;6.60;99.90;;;;;;5036245;28;20060;-77
2022/09/13 00:51:53;;;;;;;57.25;27.60;;;6.60;99.90;;;;;;5030587;28;20785;-76
2022/09/13 00:54:22;;;;;;;67.32;28.40;;;6.50;99.90;;;;;;5032094;28;20021;-76
2022/09/13 00:56:54;;;;;;;57.10;25.00;;;6.60;99.90;;;;;;5030519;28;20022;-77
2022/09/13 00:59:37;;;;;;;67.45;30.63;;;6.50;99.90;;;;;;5030521;28;20049;-76
2022/09/13 01:02:04;;;;;;;132.57;45.67;;;6.50;99.90;;;;;;5031840;28;20029;-76
2022/09/13 01:04:32;;;;;;;80.22;33.47;;;6.50;99.90;;;;;;5030575;28;20071;-76
2022/09/13 01:07:01;;;;;;;102.40;35.35;;;6.50;99.90;;;;;;5030346;28;20025;-77
2022/09/13 01:09:30;;;;;;;67.05;32.63;;;6.50;99.90;;;;;;5038001;28;20021;-78
2022/09/13 01:12:17;;;;;;;68.88;31.27;;;6.50;99.90;;;;;;5051563;28;20055;-78
2022/09/13 01:14:44;;;;;;;69.00;32.42;;;6.40;99.90;;;;;;5051741;28;20029;-77
2022/09/13 01:17:10;;;;;;;55.40;24.85;;;6.40;99.90;;;;;;5050307;28;20021;-76
2022/09/13 01:19:36;;;;;;;48.58;26.40;;;6.30;99.90;;;;;;5049870;28;20028;-77
2022/09/13 01:22:28;;;;;;;38.15;23.70;;;6.30;99.90;;;;;;5051438;28;20055;-77
2022/09/13 01:25:16;;;;;;;54.67;26.80;;;6.30;99.90;;;;;;5038180;28;20022;-76
2022/09/13 01:27:50;;;;;;;52.72;26.60;;;6.30;99.90;;;;;;5030123;28;20044;-76
2022/09/13 01:30:25;;;;;;;85.93;31.20;;;6.30;99.90;;;;;;5030102;28;20506;-77
2022/09/13 01:33:29;;;;;;;76.30;29.60;;;6.20;99.90;;;;;;5031334;28;20082;-77
2022/09/13 01:36:18;;;;;;;77.50;29.75;;;6.20;99.90;;;;;;5034365;28;20057;-76
2022/09/13 01:39:09;;;;;;;101.50;26.85;;;6.20;99.90;;;;;;5031364;28;20145;-76
2022/09/13 01:41:54;;;;;;;67.00;20.17;;;6.20;99.90;;;;;;5033144;28;20053;-77
2022/09/13 01:44:34;;;;;;;49.60;17.90;;;6.30;99.90;;;;;;5031219;28;20033;-77
2022/09/13 01:47:18;;;;;;;53.47;16.67;;;6.30;99.90;;;;;;5029853;28;20044;-76
2022/09/13 01:49:49;;;;;;;118.20;22.85;;;6.40;99.90;;;;;;5031003;28;20028;-76
2022/09/13 01:53:00;;;;;;;95.85;18.30;;;6.40;99.90;;;;;;5031198;28;20106;-77
2022/09/13 01:55:44;;;;;;;78.78;19.42;;;6.50;99.90;;;;;;5028958;28;20025;-78
2022/09/13 01:58:15;;;;;;;41.08;15.07;;;6.50;99.90;;;;;;5030728;28;20392;-76
2022/09/13 02:00:54;;;;;;;41.97;14.70;;;6.60;99.90;;;;;;5029708;28;20055;-77
2022/09/13 02:03:28;;;;;;;51.80;16.63;;;6.60;99.90;;;;;;5030896;28;20045;-77
2022/09/13 02:06:18;;;;;;;37.75;14.10;;;6.70;99.90;;;;;;5030805;28;20048;-77
2022/09/13 02:08:50;;;;;;;112.05;19.85;;;6.70;99.90;;;;;;5031410;28;20022;-77
2022/09/13 02:11:21;;;;;;;24.15;14.02;;;6.70;99.90;;;;;;5050781;28;20021;-77
2022/09/13 02:14:06;;;;;;;30.00;14.68;;;6.70;99.90;;;;;;5049075;28;20393;-77
2022/09/13 02:16:38;;;;;;;35.65;14.68;;;6.70;99.90;;;;;;5050627;28;20549;-76
2022/09/13 02:19:12;;;;;;;30.15;12.38;;;6.80;99.90;;;;;;5050619;28;20466;-76
2022/09/13 02:21:43;;;;;;;51.08;14.52;;;6.70;99.90;;;;;;5050379;28;20036;-77
2022/09/13 02:24:37;;;;;;;35.38;12.65;;;6.70;99.90;;;;;;5049251;28;20028;-77
2022/09/13 02:27:08;;;;;;;180.95;85.18;;;6.80;99.90;;;;;;5050495;28;20498;-77
2022/09/13 02:29:38;;;;;;;116.30;38.58;;;6.80;99.90;;;;;;5049039;28;20374;-78
2022/09/13 02:32:29;;;;;;;220.95;63.70;;;6.80;99.90;;;;;;5050281;28;20067;-77
2022/09/13 02:35:05;;;;;;;56.42;23.00;;;6.90;99.90;;;;;;5050241;28;20478;-77
2022/09/13 02:37:33;;;;;;;40.28;18.70;;;7.00;99.90;;;;;;5048767;28;20017;-78
2022/09/13 02:40:03;;;;;;;43.67;16.13;;;7.00;99.90;;;;;;5050329;28;20021;-76
2022/09/13 02:42:46;;;;;;;114.78;20.60;;;7.00;99.90;;;;;;5049318;28;20120;-77
2022/09/13 02:45:13;;;;;;;76.85;18.48;;;7.10;99.90;;;;;;5048993;28;20132;-77
2022/09/13 02:47:51;;;;;;;26.90;13.25;;;7.10;99.90;;;;;;5043478;28;20086;-76
2022/09/13 02:50:24;;;;;;;35.85;14.38;;;7.20;99.90;;;;;;5030312;28;20053;-77
2022/09/13 02:52:55;;;;;;;127.25;35.17;;;7.10;99.90;;;;;;5028911;28;20037;-76
2022/09/13 02:55:45;;;;;;;94.53;25.85;;;7.10;99.90;;;;;;5030125;28;20030;-76
2022/09/13 02:58:49;;;;;;;56.08;22.52;;;7.10;99.90;;;;;;5030043;28;20440;-76
2022/09/13 03:01:14;;;;;;;260.00;86.38;;;7.10;99.90;;;;;;5041088;28;20073;-76
2022/09/13 03:03:40;;;;;;;398.90;142.85;;;7.10;99.90;;;;;;5028760;28;20474;-76
2022/09/13 03:06:06;;;;;;;206.05;67.30;;;7.10;99.90;;;;;;5029903;28;20033;-76
2022/09/13 03:08:33;;;;;;;61.78;26.10;;;7.10;99.90;;;;;;5028628;28;20053;-76
2022/09/13 03:11:07;;;;;;;26.75;14.32;;;7.10;99.90;;;;;;5049455;28;20017;-76
2022/09/13 03:13:56;;;;;;;25.90;11.10;;;7.10;99.90;;;;;;5048425;28;20128;-76
2022/09/13 03:16:24;;;;;;;46.42;12.50;;;7.20;99.90;;;;;;5049829;28;20029;-76
2022/09/13 03:19:27;;;;;;;55.83;13.15;;;7.10;99.90;;;;;;5049643;28;20028;-77
2022/09/13 03:22:36;;;;;;;50.42;12.15;;;7.20;99.90;;;;;;5048547;28;20052;-76
2022/09/13 03:25:28;;;;;;;19.17;9.40;;;7.10;99.90;;;;;;5049568;28;20029;-76
2022/09/13 03:28:19;;;;;;;53.35;11.15;;;7.20;99.90;;;;;;5048521;28;20039;-76
2022/09/13 03:30:53;;;;;;;40.20;10.68;;;7.20;99.90;;;;;;5048263;28;20024;-76
2022/09/13 03:33:30;;;;;;;35.38;9.93;;;7.20;99.90;;;;;;5049590;28;20063;-77
2022/09/13 03:36:14;;;;;;;68.95;13.45;;;7.20;99.90;;;;;;5048289;28;20116;-77
2022/09/13 03:38:52;;;;;;;51.58;11.75;;;7.20;99.90;;;;;;5048259;28;20021;-76
2022/09/13 03:41:23;;;;;;;31.90;10.93;;;7.30;99.90;;;;;;5048055;28;20469;-76
2022/09/13 03:43:58;;;;;;;48.58;11.93;;;7.20;99.90;;;;;;5049377;28;20029;-77
2022/09/13 03:46:26;;;;;;;55.22;12.15;;;7.30;99.90;;;;;;5049254;28;20021;-76
2022/09/13 03:48:53;;;;;;;29.95;9.68;;;7.30;99.90;;;;;;5034936;28;20025;-77
2022/09/13 03:51:19;;;;;;;26.25;10.75;;;7.30;99.90;;;;;;5033083;28;20040;-77
2022/09/13 03:54:00;;;;;;;45.55;12.88;;;7.30;99.90;;;;;;5031474;28;20030;-77
2022/09/13 03:56:25;;;;;;;21.67;10.18;;;7.30;99.90;;;;;;5031523;28;20029;-76
2022/09/13 03:58:51;;;;;;;106.40;15.40;;;7.40;99.90;;;;;;5031369;28;20042;-76
2022/09/13 04:01:20;;;;;;;49.30;12.52;;;7.40;99.90;;;;;;5031586;28;20029;-77
2022/09/13 04:03:46;;;;;;;15.43;9.80;;;7.40;99.90;;;;;;5031544;28;20395;-76
2022/09/13 04:06:12;;;;;;;21.45;9.88;;;7.40;99.90;;;;;;5032582;28;20051;-77
2022/09/13 04:08:38;;;;;;;80.85;13.95;;;7.40;99.90;;;;;;5031793;28;20078;-77
2022/09/13 04:11:04;;;;;;;20.88;10.48;;;7.50;99.90;;;;;;5051272;28;20033;-78
2022/09/13 04:13:29;;;;;;;24.20;10.40;;;7.50;99.90;;;;;;5052433;28;20041;-77
2022/09/13 04:16:01;;;;;;;21.13;9.30;;;7.50;99.90;;;;;;5052291;28;20023;-77
2022/09/13 04:18:27;;;;;;;17.20;9.18;;;7.60;99.90;;;;;;5051187;28;20510;-77
2022/09/13 04:20:54;;;;;;;131.93;18.65;;;7.60;99.90;;;;;;5043383;28;20033;-77
2022/09/13 04:23:21;;;;;;;46.85;11.95;;;7.60;99.90;;;;;;5041818;28;20394;-77
2022/09/13 04:25:47;;;;;;;34.05;11.13;;;7.60;99.90;;;;;;5050641;28;20100;-76
2022/09/13 04:28:12;;;;;;;58.38;12.15;;;7.60;99.90;;;;;;5050970;28;20542;-77
2022/09/13 04:30:38;;;;;;;28.63;11.38;;;7.70;99.90;;;;;;5050661;28;20428;-77
2022/09/13 04:33:03;;;;;;;32.30;12.98;;;7.70;99.90;;;;;;5050843;28;20037;-77
2022/09/13 04:35:29;;;;;;;34.83;10.85;;;7.70;99.90;;;;;;5051561;28;20056;-77
2022/09/13 04:37:57;;;;;;;20.55;10.13;;;7.70;99.90;;;;;;5051849;28;20021;-77
2022/09/13 04:40:23;;;;;;;47.78;14.65;;;7.80;99.90;;;;;;5050732;28;20474;-77
2022/09/13 04:42:49;;;;;;;65.88;15.48;;;7.80;99.90;;;;;;5050777;28;20107;-77
2022/09/13 04:45:14;;;;;;;84.45;18.40;;;7.90;99.90;;;;;;5051979;28;20505;-77
2022/09/13 04:47:40;;;;;;;255.02;25.95;;;7.90;99.90;;;;;;5051638;28;20025;-76
2022/09/13 04:50:06;;;;;;;88.80;19.05;;;8.00;99.90;;;;;;5050131;28;20025;-77
2022/09/13 04:52:32;;;;;;;222.93;28.15;;;8.00;99.90;;;;;;5050409;28;20033;-77
2022/09/13 04:55:00;;;;;;;29.17;15.82;;;8.10;99.90;;;;;;5050507;28;20025;-77
2022/09/13 04:57:27;;;;;;;167.90;23.42;;;8.10;99.90;;;;;;5051766;28;20478;-77
2022/09/13 04:59:52;;;;;;;143.30;21.13;;;8.20;99.90;;;;;;5049741;28;20045;-76
2022/09/13 05:02:18;;;;;;;60.97;16.63;;;8.20;99.90;;;;;;5051594;28;20021;-78
2022/09/13 05:04:43;;;;;;;125.78;20.67;;;8.20;99.90;;;;;;5050480;28;20025;-77
2022/09/13 05:07:09;;;;;;;186.30;27.42;;;8.20;99.90;;;;;;5049848;28;20029;-78
2022/09/13 05:09:34;;;;;;;158.75;22.23;;;8.30;99.90;;;;;;5050006;28;20017;-77
2022/09/13 05:12:00;;;;;;;259.65;32.30;;;8.30;99.90;;;;;;5051413;28;20025;-77
2022/09/13 05:14:26;;;;;;;125.22;22.88;;;8.30;99.90;;;;;;5050120;28;20026;-77
2022/09/13 05:16:51;;;;;;;94.65;22.58;;;8.30;99.90;;;;;;5049947;28;20021;-78
2022/09/13 05:19:17;;;;;;;25.08;14.98;;;8.30;99.90;;;;;;5051527;28;20524;-76
2022/09/13 05:21:43;;;;;;;172.60;26.50;;;8.40;99.90;;;;;;5050861;28;20032;-78
2022/09/13 05:24:08;;;;;;;157.05;25.42;;;8.40;99.90;;;;;;5051403;28;20028;-77
2022/09/13 05:26:34;;;;;;;51.55;23.90;;;8.40;99.90;;;;;;5051045;28;20133;-77
2022/09/13 05:29:00;;;;;;;312.77;53.65;;;8.50;99.90;;;;;;5051365;27;20086;-76
2022/09/13 05:31:44;;;;;;;136.20;40.58;;;8.50;99.90;;;;;;5049739;28;20419;-77
2022/09/13 05:34:16;;;;;;;74.97;22.13;;;8.50;99.90;;;;;;5049889;28;20492;-77
2022/09/13 05:36:42;;;;;;;247.52;34.40;;;8.60;99.90;;;;;;5049256;28;20032;-77
2022/09/13 05:39:12;;;;;;;113.60;22.92;;;8.60;99.90;;;;;;5051094;28;20033;-78
2022/09/13 05:41:38;;;;;;;34.85;17.33;;;8.70;99.90;;;;;;5045185;28;20078;-77
2022/09/13 05:44:03;;;;;;;37.20;17.00;;;8.70;99.90;;;;;;5039392;28;20108;-77
2022/09/13 05:46:29;;;;;;;111.15;25.50;;;8.80;99.90;;;;;;5038264;28;20025;-76
2022/09/13 05:48:58;;;;;;;38.28;18.33;;;8.80;99.90;;;;;;5033875;28;20133;-75
2022/09/13 05:51:24;;;;;;;94.57;22.40;;;8.90;99.90;;;;;;5028237;28;20049;-76
2022/09/13 05:53:51;;;;;;;72.45;21.35;;;8.90;99.90;;;;;;5045977;28;20132;-75
2022/09/13 05:56:23;;;;;;;136.15;29.38;;;8.90;99.90;;;;;;5049614;28;20014;-74
2022/09/13 05:58:50;;;;;;;45.78;20.52;;;9.00;99.90;;;;;;5050673;28;20435;-77
2022/09/13 06:01:19;;;;;;;89.35;22.60;;;9.10;99.90;;;;;;5044407;28;20368;-83
2022/09/13 06:03:51;;;;;;;75.70;24.27;;;9.10;99.90;;;;;;5032655;28;20026;-80
2022/09/13 06:06:18;;;;;;;68.13;23.35;;;9.20;99.90;;;;;;5030832;28;20026;-79
2022/09/13 06:08:44;;;;;;;60.88;23.92;;;9.30;99.90;;;;;;5031400;28;20077;-78
2022/09/13 06:11:11;;;;;;;58.60;23.52;;;9.40;99.90;;;;;;5044762;28;20031;-82
2022/09/13 06:13:38;;;;;;;57.95;23.70;;;9.40;99.90;;;;;;5041478;28;20025;-79
2022/09/13 06:16:06;;;;;;;74.75;26.42;;;9.50;99.90;;;;;;5047446;27;20052;-81
2022/09/13 06:18:32;;;;;;;67.57;25.85;;;9.60;99.90;;;;;;5039675;28;20108;-77
2022/09/13 06:21:03;;;;;;;74.65;27.27;;;9.60;99.90;;;;;;5048214;27;20061;-83
2022/09/13 06:23:29;;;;;;;65.40;25.50;;;9.70;99.90;;;;;;5047988;28;20053;-84
2022/09/13 06:26:15;;;;;;;68.97;24.35;;;9.70;99.90;;;;;;5047434;28;20029;-84
2022/09/13 06:28:41;;;;;;;60.55;23.10;;;9.80;99.90;;;;;;5048085;28;20024;-84
2022/09/13 06:31:07;;;;;;;84.28;29.55;;;9.90;99.90;;;;;;5048826;28;20410;-79
2022/09/13 06:33:35;;;;;;;78.60;32.35;;;9.90;99.90;;;;;;5047709;28;20539;-84
2022/09/13 06:36:03;;;;;;;76.78;33.03;;;10.00;99.90;;;;;;5049085;28;20029;-80
2022/09/13 06:38:29;;;;;;;65.25;30.23;;;10.10;99.90;;;;;;5047580;27;20025;-79
2022/09/13 06:41:05;;;;;;;65.10;30.02;;;10.20;99.90;;;;;;5049205;28;20073;-83
2022/09/13 06:43:31;;;;;;;57.72;28.50;;;10.30;99.90;;;;;;5048946;28;20025;-79
2022/09/13 06:46:05;;;;;;;68.65;30.25;;;10.40;99.90;;;;;;5047724;28;20025;-80
2022/09/13 06:48:33;;;;;;;72.18;29.42;;;10.50;99.90;;;;;;5043671;28;20039;-80
2022/09/13 06:51:00;;;;;;;65.45;27.73;;;10.70;99.90;;;;;;5047776;28;20025;-84
2022/09/13 06:53:27;;;;;;;56.95;25.80;;;10.70;99.90;;;;;;5048374;27;20049;-84
2022/09/13 06:56:22;;;;;;;58.35;26.75;;;10.80;99.90;;;;;;5049010;28;20444;-84
2022/09/13 06:58:50;;;;;;;50.85;25.83;;;10.90;99.90;;;;;;5043763;28;20098;-84
2022/09/13 07:01:17;;;;;;;49.88;24.40;;;11.00;99.90;;;;;;5047443;28;20390;-83
2022/09/13 07:03:47;;;;;;;54.28;27.52;;;11.00;99.90;;;;;;5047376;28;20052;-84
2022/09/13 07:06:21;;;;;;;47.90;25.13;;;11.10;99.90;;;;;;5048792;28;20104;-80
2022/09/13 07:08:48;;;;;;;54.58;27.92;;;11.20;99.90;;;;;;5048720;28;20060;-80
2022/09/13 07:11:17;;;;;;;53.17;26.98;;;11.30;99.90;;;;;;5048508;28;20021;-80
2022/09/13 07:13:48;;;;;;;53.38;27.80;;;11.30;99.90;;;;;;5048590;28;20033;-85
2022/09/13 07:16:13;;;;;;;65.38;31.10;;;11.20;99.90;;;;;;5050073;28;20025;-79
2022/09/13 07:18:39;;;;;;;56.92;30.23;;;11.10;99.90;;;;;;5049516;28;20155;-79
2022/09/13 07:21:08;;;;;;;59.30;29.80;;;11.20;99.90;;;;;;5048503;28;20024;-84
2022/09/13 07:23:35;;;;;;;56.65;29.77;;;11.30;99.90;;;;;;5046923;28;20474;-85
2022/09/13 07:26:03;;;;;;;56.40;30.30;;;11.40;99.90;;;;;;5048022;28;20077;-80
2022/09/13 07:28:30;;;;;;;60.58;32.08;;;11.50;99.90;;;;;;5049496;28;20438;-87
2022/09/13 07:31:05;;;;;;;57.33;29.67;;;11.60;99.90;;;;;;5049645;28;20021;-80
2022/09/13 07:33:31;;;;;;;56.70;32.47;;;11.60;99.90;;;;;;5048038;28;20063;-85
2022/09/13 07:35:58;;;;;;;51.15;31.92;;;11.70;99.90;;;;;;5049572;28;20062;-84
2022/09/13 07:38:24;;;;;;;53.85;31.27;;;11.80;99.90;;;;;;5047999;28;20021;-85
2022/09/13 07:40:58;;;;;;;55.20;30.70;;;11.90;99.90;;;;;;5048250;28;20430;-80
2022/09/13 07:43:24;;;;;;;52.97;28.45;;;12.10;99.90;;;;;;5049393;28;20490;-84
2022/09/13 07:45:57;;;;;;;42.15;26.52;;;12.10;99.90;;;;;;5049315;28;20478;-80
2022/09/13 07:48:24;;;;;;;46.20;27.27;;;12.30;99.90;;;;;;5048030;28;20017;-80
2022/09/13 07:51:04;;;;;;;46.85;29.08;;;12.40;99.90;;;;;;5049211;28;20029;-80
2022/09/13 07:53:31;;;;;;;48.10;25.63;;;12.50;99.90;;;;;;5049019;28;20048;-80
2022/09/13 07:56:07;;;;;;;45.90;28.02;;;12.70;99.90;;;;;;5027061;28;20101;-80
2022/09/13 07:58:35;;;;;;;42.60;26.20;;;13.00;99.90;;;;;;5028432;28;20052;-80
2022/09/13 08:01:13;;;;;;;48.45;28.25;;;13.20;99.90;;;;;;5028549;28;20021;-80
2022/09/13 08:03:39;;;;;;;41.92;26.00;;;13.40;99.90;;;;;;5028487;28;20551;-78
2022/09/13 08:06:06;;;;;;;36.38;24.35;;;13.60;99.90;;;;;;5027294;28;20070;-78
2022/09/13 08:08:32;;;;;;;36.15;23.25;;;13.80;99.90;;;;;;5027300;28;20033;-80
2022/09/13 08:10:59;;;;;;;37.50;23.42;;;14.00;99.90;;;;;;5028582;28;20104;-85
2022/09/13 08:13:27;;;;;;;35.33;22.90;;;14.30;99.90;;;;;;5027354;28;20398;-84
2022/09/13 08:15:54;;;;;;;29.85;20.23;;;14.60;99.90;;;;;;5029064;28;20024;-84
2022/09/13 08:18:19;;;;;;;30.25;20.33;;;14.70;99.90;;;;;;5029161;28;20449;-80
2022/09/13 08:20:45;;;;;;;30.80;20.50;;;14.90;99.90;;;;;;5028779;28;20064;-81
2022/09/13 08:23:11;;;;;;;25.48;18.58;;;15.10;99.90;;;;;;5038229;28;20025;-85
2022/09/13 08:25:38;;;;;;;26.30;17.20;;;15.30;99.90;;;;;;5026828;28;20030;-85
2022/09/13 08:28:07;;;;;;;22.70;15.18;;;15.50;99.90;;;;;;5028524;28;20021;-80
2022/09/13 08:30:35;;;;;;;18.55;14.45;;;15.70;99.90;;;;;;5027703;28;20041;-86
2022/09/13 08:33:02;;;;;;;19.50;14.13;;;15.90;99.90;;;;;;5027737;28;20459;-80
2022/09/13 08:35:29;;;;;;;23.60;14.35;;;15.90;99.90;;;;;;5031148;28;20021;-80
2022/09/13 08:37:55;;;;;;;20.73;15.30;;;16.10;99.90;;;;;;5041178;28;20029;-84
2022/09/13 08:40:23;;;;;;;17.50;12.05;;;16.10;99.90;;;;;;5050379;28;20020;-80
2022/09/13 08:42:48;;;;;;;15.80;12.40;;;16.20;99.90;;;;;;5049879;28;20017;-85
2022/09/13 08:45:14;;;;;;;16.38;11.30;;;16.40;99.90;;;;;;5050747;28;20081;-80
2022/09/13 08:47:48;;;;;;;17.92;10.43;;;16.60;99.90;;;;;;5041651;28;20564;-85
2022/09/13 08:50:22;;;;;;;17.30;11.75;;;16.70;99.90;;;;;;5030468;28;20059;-80
2022/09/13 08:53:16;;;;;;;12.15;10.30;;;16.80;99.90;;;;;;5029854;28;20044;-85
2022/09/13 08:55:50;;;;;;;14.10;9.32;;;16.80;99.90;;;;;;5029748;28;20025;-86
2022/09/13 08:58:49;;;;;;;12.57;9.50;;;16.70;99.90;;;;;;5031021;28;20042;-85
2022/09/13 09:01:30;;;;;;;15.32;7.75;;;16.70;99.90;;;;;;5032185;28;20108;-86
2022/09/13 09:04:31;;;;;;;10.60;8.25;;;16.70;99.90;;;;;;5030798;28;20041;-86
2022/09/13 09:07:10;;;;;;;10.07;7.25;;;16.70;99.90;;;;;;5032095;28;20022;-81
2022/09/13 09:10:01;;;;;;;10.45;6.65;;;16.80;99.90;;;;;;5030535;28;20029;-80
2022/09/13 09:12:30;;;;;;;8.18;6.28;;;16.80;99.90;;;;;;5031605;28;20050;-81
2022/09/13 09:15:07;;;;;;;8.98;6.78;;;16.80;99.90;;;;;;5030565;28;20018;-81
2022/09/13 09:17:49;;;;;;;8.93;6.93;;;16.80;99.90;;;;;;5031767;28;20029;-86
2022/09/13 09:20:26;;;;;;;13.10;7.95;;;16.60;99.90;;;;;;5031791;28;20022;-80
2022/09/13 09:22:53;;;;;;;9.30;6.20;;;16.70;99.90;;;;;;5049525;28;20025;-86
2022/09/13 09:25:23;;;;;;;7.88;6.28;;;16.80;99.90;;;;;;5050221;28;20395;-81
2022/09/13 09:27:50;;;;;;;11.27;6.93;;;17.00;99.90;;;;;;5050165;28;20478;-81
2022/09/13 09:30:16;;;;;;;8.60;6.75;;;17.20;99.90;;;;;;5050270;28;20021;-80
2022/09/13 09:33:00;;;;;;;9.13;7.13;;;17.30;99.90;;;;;;5050057;28;20060;-81
2022/09/13 09:35:55;;;;;;;11.00;7.30;;;17.50;99.90;;;;;;5050013;28;20021;-86
2022/09/13 09:38:39;;;;;;;11.95;5.78;;;17.70;99.90;;;;;;5051339;28;20078;-81
2022/09/13 09:41:12;;;;;;;8.35;6.22;;;17.90;99.90;;;;;;5051306;28;20025;-86
2022/09/13 09:43:44;;;;;;;6.97;5.82;;;17.90;99.90;;;;;;5051273;28;20025;-86
2022/09/13 09:46:11;;;;;;;6.30;4.78;;;18.10;98.90;;;;;;5050074;28;20033;-81
2022/09/13 09:48:44;;;;;;;6.15;4.75;;;17.80;90.00;;;;;;5034639;28;20026;-87
2022/09/13 09:51:13;;;;;;;4.90;4.40;;;17.70;91.60;;;;;;5030011;28;20022;-86
2022/09/13 09:53:44;;;;;;;4.78;4.35;;;17.80;93.70;;;;;;5031181;28;20079;-87
2022/09/13 09:56:23;;;;;;;5.20;3.60;;;18.00;91.40;;;;;;5031179;28;20386;-81
2022/09/13 09:58:49;;;;;;;7.63;3.85;;;18.00;87.90;;;;;;5029846;28;20045;-86
2022/09/13 10:01:23;;;;;;;4.63;3.78;;;18.00;83.10;;;;;;5031054;28;20026;-81
2022/09/13 10:04:11;;;;;;;5.22;3.80;;;18.00;88.50;;;;;;5030984;28;20032;-87
2022/09/13 10:06:39;;;;;;;5.20;4.20;;;18.00;88.90;;;;;;5029573;28;20447;-87
2022/09/13 10:09:26;;;;;;;4.53;3.47;;;18.00;91.10;;;;;;5031042;28;20100;-81
2022/09/13 10:11:55;;;;;;;5.00;3.25;;;18.00;85.90;;;;;;5030974;28;20037;-81
2022/09/13 10:14:37;;;;;;;4.22;3.35;;;17.90;84.50;;;;;;5029737;28;20025;-80
2022/09/13 10:17:17;;;;;;;5.35;3.92;;;17.90;84.70;;;;;;5029544;28;20053;-86
2022/09/13 10:20:11;;;;;;;3.20;3.00;;;17.90;87.60;;;;;;5029604;28;20029;-80
2022/09/13 10:22:37;;;;;;;5.25;3.05;;;17.90;84.30;;;;;;5048161;28;20035;-87
2022/09/13 10:25:25;;;;;;;4.50;2.92;;;18.00;87.00;;;;;;5050730;28;20101;-80
2022/09/13 10:27:54;;;;;;;4.35;3.50;;;18.20;85.50;;;;;;5050579;28;20036;-86
2022/09/13 10:30:44;;;;;;;5.45;3.53;;;18.20;83.10;;;;;;5049114;28;20082;-87
2022/09/13 10:33:35;;;;;;;4.18;3.78;;;18.40;88.90;;;;;;5050419;28;20040;-87
2022/09/13 10:36:05;;;;;;;6.20;3.20;;;18.40;84.60;;;;;;5049243;28;20104;-87
2022/09/13 10:38:39;;;;;;;7.60;4.38;;;18.50;86.10;;;;;;5050387;28;20029;-87
2022/09/13 10:41:18;;;;;;;7.32;4.38;;;18.40;83.70;;;;;;5050310;28;20021;-80
2022/09/13 10:43:44;;;;;;;4.55;3.90;;;18.40;84.50;;;;;;5048986;28;20017;-87
2022/09/13 10:46:14;;;;;;;5.10;4.60;;;18.50;86.40;;;;;;5050288;28;20025;-81
2022/09/13 10:48:46;;;;;;;4.43;3.88;;;18.50;86.40;;;;;;5034119;28;20493;-80
2022/09/13 10:51:35;;;;;;;5.15;3.63;;;18.60;88.40;;;;;;5030009;28;20017;-86
2022/09/13 10:54:23;;;;;;;3.70;3.40;;;18.70;90.40;;;;;;5030215;28;20040;-87
2022/09/13 10:56:50;;;;;;;4.75;3.58;;;18.50;83.00;;;;;;5029840;28;20068;-86
2022/09/13 10:59:22;;;;;;;3.75;3.40;;;18.50;83.80;;;;;;5030143;28;20049;-81
2022/09/13 11:02:18;;;;;;;4.07;3.67;;;18.50;83.20;;;;;;5030094;28;20029;-86
2022/09/13 11:04:56;;;;;;;3.97;3.42;;;18.60;82.60;;;;;;5030339;28;20029;-81
2022/09/13 11:07:40;;;;;;;4.72;4.07;;;18.40;81.80;;;;;;5030129;28;20029;-80
2022/09/13 11:10:17;;;;;;;3.20;2.85;;;18.60;85.20;;;;;;5028897;28;20044;-88
2022/09/13 11:13:01;;;;;;;6.20;3.10;;;18.50;76.90;;;;;;5030103;28;20038;-81
2022/09/13 11:15:52;;;;;;;3.53;3.13;;;18.60;77.20;;;;;;5028824;28;20475;-81
2022/09/13 11:18:24;;;;;;;3.38;2.97;;;18.90;77.20;;;;;;5029963;28;20033;-87
2022/09/13 11:21:17;;;;;;;6.28;3.28;;;19.10;77.90;;;;;;5032952;28;20040;-81
2022/09/13 11:23:45;;;;;;;5.22;3.58;;;19.20;76.30;;;;;;5049872;28;20029;-81
2022/09/13 11:26:23;;;;;;;5.68;3.65;;;19.30;74.30;;;;;;5049582;28;20474;-87
2022/09/13 11:29:06;;;;;;;3.05;2.75;;;19.30;75.90;;;;;;5048098;28;20485;-87
2022/09/13 11:31:44;;;;;;;5.35;2.70;;;19.40;72.90;;;;;;5048348;28;20017;-87
2022/09/13 11:34:15;;;;;;;3.40;3.10;;;19.40;71.40;;;;;;5049733;28;20037;-87
2022/09/13 11:36:58;;;;;;;2.83;2.63;;;19.60;71.10;;;;;;5049690;28;20101;-88
2022/09/13 11:40:08;;;;;;;4.82;2.97;;;19.70;69.70;;;;;;5049685;28;20103;-87
2022/09/13 11:42:56;;;;;;;5.15;3.13;;;19.90;70.90;;;;;;5058572;28;20071;-86
2022/09/13 11:45:27;;;;;;;2.50;2.40;;;19.80;69.40;;;;;;5048495;28;20037;-87
2022/09/13 11:48:29;;;;;;;3.15;2.92;;;19.80;69.70;;;;;;5039558;28;20071;-81
2022/09/13 11:51:09;;;;;;;4.32;3.08;;;19.80;67.60;;;;;;5029694;28;20026;-87
2022/09/13 11:53:39;;;;;;;3.90;2.75;;;19.80;68.00;;;;;;5029394;28;20036;-81
2022/09/13 11:56:12;;;;;;;3.17;2.78;;;19.90;66.70;;;;;;5028436;28;20025;-81
2022/09/13 11:58:46;;;;;;;4.05;3.17;;;20.00;67.60;;;;;;5028127;28;20045;-81
2022/09/13 12:01:20;;;;;;;5.03;3.20;;;20.10;68.70;;;;;;5028358;28;20022;-87
2022/09/13 12:04:05;;;;;;;3.92;3.60;;;19.90;68.60;;;;;;5029438;28;21750;-87
2022/09/13 12:06:35;;;;;;;3.15;2.85;;;20.00;67.70;;;;;;5029611;28;20030;-80
2022/09/13 12:09:04;;;;;;;3.22;3.03;;;20.10;68.10;;;;;;5029150;28;20030;-81
2022/09/13 12:11:40;;;;;;;5.20;3.17;;;20.20;67.20;;;;;;5031487;28;20045;-80
2022/09/13 12:14:12;;;;;;;3.95;3.10;;;20.20;64.90;;;;;;5031346;28;20030;-81
2022/09/13 12:16:45;;;;;;;3.35;3.05;;;20.20;66.10;;;;;;5032676;27;20108;-81
2022/09/13 12:19:20;;;;;;;3.72;3.42;;;19.90;65.20;;;;;;5032604;28;20033;-81
2022/09/13 12:21:47;;;;;;;3.08;2.88;;;19.70;65.20;;;;;;5043568;28;20420;-81
2022/09/13 12:24:35;;;;;;;3.50;3.20;;;19.60;66.90;;;;;;5052419;28;20385;-87
2022/09/13 12:27:11;;;;;;;5.25;4.60;;;19.50;68.60;;;;;;5052440;28;20111;-80
2022/09/13 12:29:47;;;;;;;15.25;11.45;;;19.30;67.90;;;;;;5052471;28;20029;-87
2022/09/13 12:32:14;;;;;;;24.58;16.67;;;19.20;67.30;;;;;;5052495;28;20418;-81
2022/09/13 12:34:58;;;;;;;24.75;16.42;;;19.20;68.30;;;;;;5051248;28;20056;-87
2022/09/13 12:37:48;;;;;;;51.67;33.22;;;19.20;69.90;;;;;;5051151;28;20461;-81
2022/09/13 12:40:33;;;;;;;59.25;37.25;;;19.20;69.80;;;;;;5052786;27;20067;-87
2022/09/13 12:43:10;;;;;;;21.52;15.57;;;19.30;71.20;;;;;;5051089;28;20021;-80
2022/09/13 12:46:14;;;;;;;5.00;4.50;;;19.30;71.80;;;;;;5050881;28;20028;-87
2022/09/13 12:49:01;;;;;;;6.30;5.80;;;19.30;72.70;;;;;;5053191;28;20386;-88
2022/09/13 12:51:35;;;;;;;6.45;4.53;;;19.30;72.60;;;;;;5053413;28;20029;-87
2022/09/13 12:54:05;;;;;;;10.68;9.68;;;19.40;73.40;;;;;;5039093;28;20049;-87
2022/09/13 12:56:48;;;;;;;12.57;11.20;;;19.50;73.20;;;;;;5032508;28;20010;-87
2022/09/13 12:59:37;;;;;;;25.85;15.70;;;19.50;72.20;;;;;;5031948;28;20049;-87
2022/09/13 13:02:29;;;;;;;24.17;10.88;;;19.50;70.70;;;;;;5031976;28;20033;-80
2022/09/13 13:05:00;;;;;;;20.03;7.80;;;19.40;71.10;;;;;;5030826;28;20025;-80
2022/09/13 13:07:26;;;;;;;5.40;4.47;;;19.50;72.90;;;;;;5030608;28;20282;-87
2022/09/13 13:09:54;;;;;;;11.20;5.78;;;19.40;73.20;;;;;;5030359;28;20029;-88